ADDS METAR Data INFO
IDs: Format: Raw Decoded Include TAF

Data at: 2136 UTC 15 Dec 2017

KONT 152053Z 25004KT 10SM SCT250 26/M15 A3008 RMK AO2 SLP173 T02561150 58030
KONT 151953Z VRB03KT 10SM SCT250 24/M16 A3011 RMK AO2 SLP186 T02441156
KONT 151853Z VRB03KT 10SM SCT250 24/M17 A3016 RMK AO2 SLP199 T02391172
KONT 151753Z VRB04KT 10SM FEW250 21/M11 A3017 RMK AO2 SLP206 T02061111 10206 20089 51009
KONT 151653Z VRB03KT 10SM FEW250 19/M11 A3016 RMK AO2 SLP206 T01891106
KONT 151553Z VRB04KT 10SM FEW250 14/M11 A3016 RMK AO2 SLP202 T01441106
KONT 151453Z VRB04KT 10SM FEW250 11/M09 A3014 RMK AO2 SLP199 T01111094 53006
KONT 151353Z VRB04KT 10SM CLR 09/M11 A3013 RMK AO2 SLP197 T00941111
KONT 151253Z VRB06KT 10SM CLR 11/M11 A3012 RMK AO2 SLP193 T01061106
KONT 151153Z 36004KT 10SM CLR 12/M11 A3012 RMK AO2 SLP190 T01221106 10206 20111 50002
KONT 151053Z VRB04KT 10SM CLR 14/M12 A3012 RMK AO2 SLP189 T01441122
KONT 150953Z 01008KT 10SM FEW250 16/M13 A3012 RMK AO2 SLP186 T01611128
KONT 150853Z COR VRB06KT 10SM FEW250 16/M13 A3012 RMK AO2 SLP186 T01561133 51005
KONT 150753Z VRB05KT 10SM FEW250 16/M12 A3011 RMK AO2 SLP184 T01611122 402780061
KONT 150653Z VRB06KT 10SM SCT250 19/M13 A3010 RMK AO2 SLP180 T01891133
KONT 150553Z 05005KT 10SM SCT250 17/M12 A3010 RMK AO2 SLP181 T01721122 10261 20167 53014
KONT 150453Z 30005KT 10SM SCT250 18/M11 A3008 RMK AO2 SLP174 T01831111
KONT 150353Z 17006G18KT 10SM SCT250 26/M21 A3006 RMK AO2 SLP165 T02561211
KONT 150253Z 28004KT 10SM SCT250 22/M12 A3006 RMK AO2 SLP169 T02171117 51023
KONT 150153Z 03012G19KT 350V050 10SM SCT250 24/M19 A3004 RMK AO2 PK WND 04033/0120 SLP165 T02441194
KONT 150053Z 04020G33KT 10SM SCT250 25/M18 A3002 RMK AO2 PK WND 04036/0018 SLP156 T02501183
KONT 142353Z 04020G30KT 10SM SCT250 26/M16 A2999 RMK AO2 PK WND 04036/2326 SLP147 T02611161 10278 20256 55004
KONT 142253Z 04020G34KT 10SM BKN250 27/M14 A2999 RMK AO2 PK WND 05034/2247 SLP144 T02721144
KONT 142153Z 03021G31KT 10SM BKN250 27/M14 A2999 RMK AO2 PK WND 02032/2112 SLP148 T02721139
KONT 142053Z 04022G31KT 10SM SCT250 27/M13 A3000 RMK AO2 PK WND 04031/2050 SLP149 T02721128 56007
KONT 141953Z 03014G27KT 10SM FEW250 28/M13 A3001 RMK AO2 PK WND 05031/1904 SLP152 T02781128
KONT 141853Z 05021G30KT 10SM FEW250 26/M12 A3002 RMK AO2 PK WND 04032/1756 SLP153 T02611117
KONT 141753Z 04019G35KT 10SM FEW250 26/M12 A3002 RMK AO2 PK WND 04040/1656 SLP157 T02561117 10261 20061 51015
KONT 141653Z 05020G40KT 10SM FEW250 24/M13 A3002 RMK AO2 PK WND 06045/1559 SLP154 T02391128
KONT 141553Z COR 05034G52KT 10SM FEW120 FEW250 23/M16 A2999 RMK AO2 SLP146 PK WND 05052/1549 T02331156
KONT 141539Z COR 05032G48KT 10SM FEW120 23/M16 A2998 RMK AO2 T02331161
KONT 141502Z 16010G19KT 110V190 10SM FEW250 19/M16 A2997 RMK AO2 T01941161
KONT 141453Z COR 24006KT 10SM FEW250 18/M14 A2998 RMK AO2 SLP144 T01781139 51006
KONT 141353Z VRB03KT 10SM FEW250 10/M08 A2998 RMK AO2 SLP146 T01001078
KONT 141253Z VRB03KT 10SM FEW250 10/M08 A2996 RMK AO2 SLP140 T01001083
KONT 141153Z VRB03KT 10SM FEW250 10/M07 A2996 RMK AO2 SLP137 T01001067 10150 20072 58002
KONT 141053Z 04004KT 10SM CLR 10/M06 A2997 RMK AO2 SLP140 T01001056
KONT 140953Z VRB03KT 10SM CLR 09/M07 A2996 RMK AO2 SLP138 T00891067